Lehmann Sound — V2EM3 — position and weather

sailwx.info

Track history (hours):
 
Tides and Currents Weather Stations Pressure Air Temp Water Temp Dewpoint Dewpoint Depression Visibility Wind Speed Wind Dir Waves Ship Positions

Lehmann Sound

Last reported at 2016-Aug-25 15:17 UTC. Time now 2016-Aug-27 16:55 UTC.
Position N 47°07' W 005°27'.

Length 90 m; draft 5.4 m.

Type: Cargo ship. MMSI: 305476000.

Date/timePositionNaut miles runAvg speedWind from/ knotsBaromVisibWave heightAir tempDewpointWater temp
2016-Aug-25 15:17N 47°07' W 005°27'6 8.6
2016-Aug-25 14:33N 47°13' W 005°30'9 9.5
2016-Aug-25 13:34N 47°22' W 005°35'13 9.9
2016-Aug-25 12:16N 47°34' W 005°42'1110.2
2016-Aug-25 11:08N 47°45' W 005°46'61 8.6
2016-Aug-25 04:05N 48°43' W 006°14'5 9.7
2016-Aug-25 03:33N 48°48' W 006°13'61 9.8
2016-Aug-24 21:21N 49°48' W 006°01'8 9.3
2016-Aug-24 20:32N 49°56' W 006°00'9 8.7
2016-Aug-24 19:32N 50°04' W 005°60'8 8.2
2016-Aug-24 18:33N 50°12' W 005°59'8 8.2
2016-Aug-24 17:33N 50°21' W 005°59'12 9.3
2016-Aug-24 16:13N 50°33' W 005°58'6 9.6
2016-Aug-24 15:33N 50°39' W 005°59'10 9.6
2016-Aug-24 14:33N 50°49' W 005°59'30 9.2
2016-Aug-24 11:17N 51°19' W 005°58'173 9.7
2016-Aug-23 17:21N 54°11' W 005°20'7 9.1
2016-Aug-23 16:33N 54°18' W 005°18'9 8.7
2016-Aug-23 15:33N 54°27' W 005°16'8 8.3
2016-Aug-23 14:33N 54°35' W 005°16'9 9.2
2016-Aug-23 13:33N 54°44' W 005°17'10 9.8
2016-Aug-23 12:33N 54°54' W 005°19'10 9.6
2016-Aug-23 11:33N 55°03' W 005°19'30 9.5
2016-Aug-23 08:22N 55°32' W 004°60'9 9.9
2016-Aug-23 07:25N 55°41' W 004°59'910.5
2016-Aug-23 06:33N 55°50' W 004°57'9 9.3
2016-Aug-23 05:33N 55°58' W 004°50'9 9.5
2016-Aug-23 04:33N 55°56' W 004°33'8 7.8
2016-Aug-23 03:33N 55°52' W 004°21'0 0.1
2016-Aug-23 02:28N 55°52' W 004°21'0 0.0
2016-Aug-23 01:31N 55°52' W 004°21'0 0.0
2016-Aug-23 00:31N 55°52' W 004°21'0 0.0
2016-Aug-22 23:31N 55°52' W 004°21'0 0.0
2016-Aug-22 22:31N 55°52' W 004°21'0 0.0
2016-Aug-22 21:31N 55°52' W 004°21'0 0.0
2016-Aug-22 20:28N 55°52' W 004°21'0 0.0
2016-Aug-22 19:31N 55°52' W 004°21'0 0.0
2016-Aug-22 18:31N 55°52' W 004°21'0 0.0
2016-Aug-22 17:28N 55°52' W 004°21'0 0.0
2016-Aug-22 16:28N 55°52' W 004°21'0 0.0
2016-Aug-22 15:31N 55°52' W 004°21'0 0.0
2016-Aug-22 14:25N 55°52' W 004°21'0 0.0
2016-Aug-22 13:31N 55°52' W 004°21'0 0.0
2016-Aug-22 12:31N 55°52' W 004°21'0 0.0
2016-Aug-22 11:31N 55°52' W 004°21'0 0.0
2016-Aug-22 10:31N 55°52' W 004°21'0 0.0
2016-Aug-22 09:31N 55°52' W 004°21'0 0.0
2016-Aug-22 08:28N 55°52' W 004°21'0 0.0
2016-Aug-22 07:31N 55°52' W 004°21'0 0.0
2016-Aug-22 06:31N 55°52' W 004°21'0 0.0
2016-Aug-22 05:25N 55°52' W 004°21'0 0.0
2016-Aug-22 04:25N 55°52' W 004°21'0 0.0
2016-Aug-22 03:31N 55°52' W 004°21'0 0.0
2016-Aug-22 02:31N 55°52' W 004°21'0 0.0
2016-Aug-22 01:28N 55°52' W 004°21'0 0.0
2016-Aug-22 00:31N 55°52' W 004°21'0 0.0
2016-Aug-21 23:34N 55°52' W 004°21'0 0.0
2016-Aug-21 22:25N 55°52' W 004°21'0 0.0
2016-Aug-21 21:30N 55°52' W 004°21'0 0.0
2016-Aug-21 20:30N 55°52' W 004°21'0 0.0
2016-Aug-21 19:30N 55°52' W 004°21'0 0.0
2016-Aug-21 18:30N 55°52' W 004°21'0 0.0
2016-Aug-21 17:30N 55°52' W 004°21'0 0.0
2016-Aug-21 16:33N 55°52' W 004°21'0 0.0
2016-Aug-21 15:33N 55°52' W 004°21'0 0.0
2016-Aug-21 14:30N 55°52' W 004°21'0 0.0
2016-Aug-21 13:33N 55°52' W 004°21'0 0.0
2016-Aug-21 12:33N 55°52' W 004°21'0 0.0
2016-Aug-21 11:30N 55°52' W 004°21'0 0.0
2016-Aug-21 10:30N 55°52' W 004°21'0 0.0
2016-Aug-21 09:27N 55°52' W 004°21'0 0.0
2016-Aug-21 08:33N 55°52' W 004°21'0 0.0
2016-Aug-21 07:33N 55°52' W 004°21'0 0.0
2016-Aug-21 06:24N 55°52' W 004°21'0 0.0
2016-Aug-21 05:33N 55°52' W 004°21'0 0.0
2016-Aug-21 04:30N 55°52' W 004°21'0 0.0
2016-Aug-21 03:33N 55°52' W 004°21'0 0.0
2016-Aug-21 02:30N 55°52' W 004°21'0 0.0
2016-Aug-21 01:33N 55°52' W 004°21'0 0.0
2016-Aug-21 00:30N 55°52' W 004°21'0 0.0
2016-Aug-20 23:30N 55°52' W 004°21'0 0.0
2016-Aug-20 22:30N 55°52' W 004°21'0 0.0
2016-Aug-20 21:33N 55°52' W 004°21'0 0.0
2016-Aug-20 20:33N 55°52' W 004°21'0 0.0
2016-Aug-20 19:24N 55°52' W 004°21'0 0.0
2016-Aug-20 18:30N 55°52' W 004°21'0 0.0
2016-Aug-20 17:33N 55°52' W 004°21'0 0.0
2016-Aug-20 16:30N 55°52' W 004°21'0 0.0
2016-Aug-20 15:33N 55°52' W 004°21'0 0.0
2016-Aug-20 14:33N 55°52' W 004°21'0 0.0
2016-Aug-20 13:27N 55°52' W 004°21'0 0.0
2016-Aug-20 12:33N 55°52' W 004°21'0 0.0
2016-Aug-20 11:33N 55°52' W 004°21'0 0.0
2016-Aug-20 10:32N 55°52' W 004°21'0 0.0
2016-Aug-20 09:32N 55°52' W 004°21'0 0.0
2016-Aug-20 08:32N 55°52' W 004°21'0 0.0
2016-Aug-20 07:29N 55°52' W 004°21'0 0.0
2016-Aug-20 06:32N 55°52' W 004°21'0 0.0
2016-Aug-20 05:32N 55°52' W 004°21'0 0.0
2016-Aug-20 04:32N 55°52' W 004°21'0 0.0
2016-Aug-20 03:32N 55°52' W 004°21'0 0.0
2016-Aug-20 02:32N 55°52' W 004°21'0 0.0
2016-Aug-20 01:32N 55°52' W 004°21'2 2.0
2016-Aug-20 00:33N 55°53' W 004°24'8 8.5
2016-Aug-19 23:33N 55°56' W 004°38'7 7.1
2016-Aug-19 22:33N 55°58' W 004°50'1 0.9
2016-Aug-19 21:32N 55°58' W 004°52'0 0.0
2016-Aug-19 20:29N 55°58' W 004°52'0 0.0
2016-Aug-19 19:32N 55°58' W 004°52'0 0.0
2016-Aug-19 18:32N 55°58' W 004°52'0 0.0
2016-Aug-19 17:32N 55°58' W 004°52'0 0.0
2016-Aug-19 16:32N 55°58' W 004°52'0 0.0
2016-Aug-19 15:32N 55°58' W 004°52'0 0.0
2016-Aug-19 14:32N 55°58' W 004°52'0 0.0
2016-Aug-19 13:32N 55°58' W 004°52'0 0.2
2016-Aug-19 12:33N 55°58' W 004°52'9 7.8
2016-Aug-19 11:26N 55°50' W 004°57'12 9.2
2016-Aug-19 10:05N 55°38' W 004°60'27 9.2
2016-Aug-19 07:09N 55°12' W 005°13'6 9.7
2016-Aug-19 06:33N 55°06' W 005°17'8 8.5
2016-Aug-19 05:33N 54°58' W 005°18'1010.4
2016-Aug-19 04:34N 54°48' W 005°12'1211.5
2016-Aug-19 03:33N 54°37' W 005°04'10 9.9
2016-Aug-19 02:34N 54°28' W 005°04'1010.4
2016-Aug-19 01:34N 54°17' W 005°05'1010.0
2016-Aug-19 00:33N 54°08' W 005°10'157 8.2
2016-Aug-18 05:34N 51°31' W 005°05'10 8.5
2016-Aug-18 04:26N 51°28' W 004°50'7 7.8
2016-Aug-18 03:31N 51°26' W 004°39'7 7.3
2016-Aug-18 02:33N 51°25' W 004°28'8 7.5
2016-Aug-18 01:33N 51°24' W 004°16'12 8.6
2016-Aug-18 00:09N 51°22' W 003°57'2111.2
2016-Aug-17 22:19N 51°20' W 003°24'911.2
2016-Aug-17 21:28N 51°23' W 003°10'1112.2
2016-Aug-17 20:34N 51°28' W 002°54'1111.0
2016-Aug-17 19:33N 51°35' W 002°41'9 6.9
2016-Aug-17 18:16N 51°42' W 002°30'2 0.5
2016-Aug-17 14:30N 51°43' W 002°29'0 0.0
2016-Aug-17 12:30N 51°43' W 002°29'0 0.0
2016-Aug-17 05:27N 51°43' W 002°29'0 0.0
2016-Aug-17 04:15N 51°43' W 002°29'0 0.0
2016-Aug-17 03:30N 51°43' W 002°29'0 0.0
2016-Aug-17 02:30N 51°43' W 002°29'0 0.0
2016-Aug-17 01:30N 51°43' W 002°29'0 0.0
2016-Aug-17 00:27N 51°43' W 002°29'0 0.0
2016-Aug-16 23:27N 51°43' W 002°29'0 0.0
2016-Aug-16 22:33N 51°43' W 002°29'0 0.0
2016-Aug-16 21:09N 51°43' W 002°29'0 0.0
2016-Aug-16 20:27N 51°43' W 002°29'0 0.0
2016-Aug-16 10:29N 51°43' W 002°29'0 0.0
2016-Aug-16 09:29N 51°43' W 002°29'0 0.0
2016-Aug-16 08:32N 51°43' W 002°29'0 0.2
2016-Aug-16 07:28N 51°43' W 002°29'0 0.0
2016-Aug-16 06:33N 51°43' W 002°29'10 5.2
2016-Aug-16 04:33N 51°36' W 002°40'9 9.2
2016-Aug-16 03:33N 51°29' W 002°50'10 9.6
2016-Aug-16 02:33N 51°25' W 003°04'  
Track history (hours):
 
Tides and Currents Weather Stations Pressure Air Temp Water Temp Dewpoint Dewpoint Depression Visibility Wind Speed Wind Dir Waves Ship Positions

Lehmann Sound

Last reported at 2016-Aug-25 15:17 UTC. Time now 2016-Aug-27 16:55 UTC.
Position N 47°07' W 005°27'.

Length 90 m; draft 5.4 m.

Type: Cargo ship. MMSI: 305476000.

Date/timePositionNaut miles runAvg speedWind from/ knotsBaromVisibWave heightAir tempDewpointWater temp
2016-Aug-25 15:17N 47°07' W 005°27'6 8.6
2016-Aug-25 14:33N 47°13' W 005°30'9 9.5
2016-Aug-25 13:34N 47°22' W 005°35'13 9.9
2016-Aug-25 12:16N 47°34' W 005°42'1110.2
2016-Aug-25 11:08N 47°45' W 005°46'61 8.6
2016-Aug-25 04:05N 48°43' W 006°14'5 9.7
2016-Aug-25 03:33N 48°48' W 006°13'61 9.8
2016-Aug-24 21:21N 49°48' W 006°01'8 9.3
2016-Aug-24 20:32N 49°56' W 006°00'9 8.7
2016-Aug-24 19:32N 50°04' W 005°60'8 8.2
2016-Aug-24 18:33N 50°12' W 005°59'8 8.2
2016-Aug-24 17:33N 50°21' W 005°59'12 9.3
2016-Aug-24 16:13N 50°33' W 005°58'6 9.6
2016-Aug-24 15:33N 50°39' W 005°59'10 9.6
2016-Aug-24 14:33N 50°49' W 005°59'30 9.2
2016-Aug-24 11:17N 51°19' W 005°58'173 9.7
2016-Aug-23 17:21N 54°11' W 005°20'7 9.1
2016-Aug-23 16:33N 54°18' W 005°18'9 8.7
2016-Aug-23 15:33N 54°27' W 005°16'8 8.3
2016-Aug-23 14:33N 54°35' W 005°16'9 9.2
2016-Aug-23 13:33N 54°44' W 005°17'10 9.8
2016-Aug-23 12:33N 54°54' W 005°19'10 9.6
2016-Aug-23 11:33N 55°03' W 005°19'30 9.5
2016-Aug-23 08:22N 55°32' W 004°60'9 9.9
2016-Aug-23 07:25N 55°41' W 004°59'910.5
2016-Aug-23 06:33N 55°50' W 004°57'9 9.3
2016-Aug-23 05:33N 55°58' W 004°50'9 9.5
2016-Aug-23 04:33N 55°56' W 004°33'8 7.8
2016-Aug-23 03:33N 55°52' W 004°21'0 0.1
2016-Aug-23 02:28N 55°52' W 004°21'0 0.0
2016-Aug-23 01:31N 55°52' W 004°21'0 0.0
2016-Aug-23 00:31N 55°52' W 004°21'0 0.0
2016-Aug-22 23:31N 55°52' W 004°21'0 0.0
2016-Aug-22 22:31N 55°52' W 004°21'0 0.0
2016-Aug-22 21:31N 55°52' W 004°21'0 0.0
2016-Aug-22 20:28N 55°52' W 004°21'0 0.0
2016-Aug-22 19:31N 55°52' W 004°21'0 0.0
2016-Aug-22 18:31N 55°52' W 004°21'0 0.0
2016-Aug-22 17:28N 55°52' W 004°21'0 0.0
2016-Aug-22 16:28N 55°52' W 004°21'0 0.0
2016-Aug-22 15:31N 55°52' W 004°21'0 0.0
2016-Aug-22 14:25N 55°52' W 004°21'0 0.0
2016-Aug-22 13:31N 55°52' W 004°21'0 0.0
2016-Aug-22 12:31N 55°52' W 004°21'0 0.0
2016-Aug-22 11:31N 55°52' W 004°21'0 0.0
2016-Aug-22 10:31N 55°52' W 004°21'0 0.0
2016-Aug-22 09:31N 55°52' W 004°21'0 0.0
2016-Aug-22 08:28N 55°52' W 004°21'0 0.0
2016-Aug-22 07:31N 55°52' W 004°21'0 0.0
2016-Aug-22 06:31N 55°52' W 004°21'0 0.0
2016-Aug-22 05:25N 55°52' W 004°21'0 0.0
2016-Aug-22 04:25N 55°52' W 004°21'0 0.0
2016-Aug-22 03:31N 55°52' W 004°21'0 0.0
2016-Aug-22 02:31N 55°52' W 004°21'0 0.0
2016-Aug-22 01:28N 55°52' W 004°21'0 0.0
2016-Aug-22 00:31N 55°52' W 004°21'0 0.0
2016-Aug-21 23:34N 55°52' W 004°21'0 0.0
2016-Aug-21 22:25N 55°52' W 004°21'0 0.0
2016-Aug-21 21:30N 55°52' W 004°21'0 0.0
2016-Aug-21 20:30N 55°52' W 004°21'0 0.0
2016-Aug-21 19:30N 55°52' W 004°21'0 0.0
2016-Aug-21 18:30N 55°52' W 004°21'0 0.0
2016-Aug-21 17:30N 55°52' W 004°21'0 0.0
2016-Aug-21 16:33N 55°52' W 004°21'0 0.0
2016-Aug-21 15:33N 55°52' W 004°21'0 0.0
2016-Aug-21 14:30N 55°52' W 004°21'0 0.0
2016-Aug-21 13:33N 55°52' W 004°21'0 0.0
2016-Aug-21 12:33N 55°52' W 004°21'0 0.0
2016-Aug-21 11:30N 55°52' W 004°21'0 0.0
2016-Aug-21 10:30N 55°52' W 004°21'0 0.0
2016-Aug-21 09:27N 55°52' W 004°21'0 0.0
2016-Aug-21 08:33N 55°52' W 004°21'0 0.0
2016-Aug-21 07:33N 55°52' W 004°21'0 0.0
2016-Aug-21 06:24N 55°52' W 004°21'0 0.0
2016-Aug-21 05:33N 55°52' W 004°21'0 0.0
2016-Aug-21 04:30N 55°52' W 004°21'0 0.0
2016-Aug-21 03:33N 55°52' W 004°21'0 0.0
2016-Aug-21 02:30N 55°52' W 004°21'0 0.0
2016-Aug-21 01:33N 55°52' W 004°21'0 0.0
2016-Aug-21 00:30N 55°52' W 004°21'0 0.0
2016-Aug-20 23:30N 55°52' W 004°21'0 0.0
2016-Aug-20 22:30N 55°52' W 004°21'0 0.0
2016-Aug-20 21:33N 55°52' W 004°21'0 0.0
2016-Aug-20 20:33N 55°52' W 004°21'0 0.0
2016-Aug-20 19:24N 55°52' W 004°21'0 0.0
2016-Aug-20 18:30N 55°52' W 004°21'0 0.0
2016-Aug-20 17:33N 55°52' W 004°21'0 0.0
2016-Aug-20 16:30N 55°52' W 004°21'0 0.0
2016-Aug-20 15:33N 55°52' W 004°21'0 0.0
2016-Aug-20 14:33N 55°52' W 004°21'0 0.0
2016-Aug-20 13:27N 55°52' W 004°21'0 0.0
2016-Aug-20 12:33N 55°52' W 004°21'0 0.0
2016-Aug-20 11:33N 55°52' W 004°21'0 0.0
2016-Aug-20 10:32N 55°52' W 004°21'0 0.0
2016-Aug-20 09:32N 55°52' W 004°21'0 0.0
2016-Aug-20 08:32N 55°52' W 004°21'0 0.0
2016-Aug-20 07:29N 55°52' W 004°21'0 0.0
2016-Aug-20 06:32N 55°52' W 004°21'0 0.0
2016-Aug-20 05:32N 55°52' W 004°21'0 0.0
2016-Aug-20 04:32N 55°52' W 004°21'0 0.0
2016-Aug-20 03:32N 55°52' W 004°21'0 0.0
2016-Aug-20 02:32N 55°52' W 004°21'0 0.0
2016-Aug-20 01:32N 55°52' W 004°21'2 2.0
2016-Aug-20 00:33N 55°53' W 004°24'8 8.5
2016-Aug-19 23:33N 55°56' W 004°38'7 7.1
2016-Aug-19 22:33N 55°58' W 004°50'1 0.9
2016-Aug-19 21:32N 55°58' W 004°52'0 0.0
2016-Aug-19 20:29N 55°58' W 004°52'0 0.0
2016-Aug-19 19:32N 55°58' W 004°52'0 0.0
2016-Aug-19 18:32N 55°58' W 004°52'0 0.0
2016-Aug-19 17:32N 55°58' W 004°52'0 0.0
2016-Aug-19 16:32N 55°58' W 004°52'0 0.0
2016-Aug-19 15:32N 55°58' W 004°52'0 0.0
2016-Aug-19 14:32N 55°58' W 004°52'0 0.0
2016-Aug-19 13:32N 55°58' W 004°52'0 0.2
2016-Aug-19 12:33N 55°58' W 004°52'9 7.8
2016-Aug-19 11:26N 55°50' W 004°57'12 9.2
2016-Aug-19 10:05N 55°38' W 004°60'27 9.2
2016-Aug-19 07:09N 55°12' W 005°13'6 9.7
2016-Aug-19 06:33N 55°06' W 005°17'8 8.5
2016-Aug-19 05:33N 54°58' W 005°18'1010.4
2016-Aug-19 04:34N 54°48' W 005°12'1211.5
2016-Aug-19 03:33N 54°37' W 005°04'10 9.9
2016-Aug-19 02:34N 54°28' W 005°04'1010.4
2016-Aug-19 01:34N 54°17' W 005°05'1010.0
2016-Aug-19 00:33N 54°08' W 005°10'157 8.2
2016-Aug-18 05:34N 51°31' W 005°05'10 8.5
2016-Aug-18 04:26N 51°28' W 004°50'7 7.8
2016-Aug-18 03:31N 51°26' W 004°39'7 7.3
2016-Aug-18 02:33N 51°25' W 004°28'8 7.5
2016-Aug-18 01:33N 51°24' W 004°16'12 8.6
2016-Aug-18 00:09N 51°22' W 003°57'2111.2
2016-Aug-17 22:19N 51°20' W 003°24'911.2
2016-Aug-17 21:28N 51°23' W 003°10'1112.2
2016-Aug-17 20:34N 51°28' W 002°54'1111.0
2016-Aug-17 19:33N 51°35' W 002°41'9 6.9
2016-Aug-17 18:16N 51°42' W 002°30'2 0.5
2016-Aug-17 14:30N 51°43' W 002°29'0 0.0
2016-Aug-17 12:30N 51°43' W 002°29'0 0.0
2016-Aug-17 05:27N 51°43' W 002°29'0 0.0
2016-Aug-17 04:15N 51°43' W 002°29'0 0.0
2016-Aug-17 03:30N 51°43' W 002°29'0 0.0
2016-Aug-17 02:30N 51°43' W 002°29'0 0.0
2016-Aug-17 01:30N 51°43' W 002°29'0 0.0
2016-Aug-17 00:27N 51°43' W 002°29'0 0.0
2016-Aug-16 23:27N 51°43' W 002°29'0 0.0
2016-Aug-16 22:33N 51°43' W 002°29'0 0.0
2016-Aug-16 21:09N 51°43' W 002°29'0 0.0
2016-Aug-16 20:27N 51°43' W 002°29'0 0.0
2016-Aug-16 10:29N 51°43' W 002°29'0 0.0
2016-Aug-16 09:29N 51°43' W 002°29'0 0.0
2016-Aug-16 08:32N 51°43' W 002°29'0 0.2
2016-Aug-16 07:28N 51°43' W 002°29'0 0.0
2016-Aug-16 06:33N 51°43' W 002°29'10 5.2
2016-Aug-16 04:33N 51°36' W 002°40'9 9.2
2016-Aug-16 03:33N 51°29' W 002°50'10 9.6
2016-Aug-16 02:33N 51°25' W 003°04'  

Dump ship's entire track history